Terminal Aerodrome Forecast
Issued by NWS Pittsburgh, PA

Current Version | Previous Version | Graphics & Text | Print | Product List | Glossary On
Versions: 1 2 3 4 5 6 7 8 9 10 11 12 13 14 15 16 17 18 19 20 21 22 23 24 25 26 27 28 29 30 31
000
FTUS41 KPBZ 060857 AAA
TAFPIT
TAF AMD
KPIT 060857Z 0609/0712 12006KT P6SM OVC150
     FM061300 13004KT P6SM -SHRA BKN060
     FM061700 19006KT 4SM -SHRA BKN025
     FM062300 21005KT P6SM BKN040=

USA.gov is the U.S. government's official web portal to all federal, state and local government web resources and services.